sensor_id;sensor_type;location;lat;lon;timestamp;temperature;humidity
19088;DHT22;9676;50.916;13.352;2024-03-25T00:02:31;8.60;67.70
19088;DHT22;9676;50.916;13.352;2024-03-25T00:05:16;8.70;67.80
19088;DHT22;9676;50.916;13.352;2024-03-25T00:08:07;8.60;67.70
19088;DHT22;9676;50.916;13.352;2024-03-25T00:10:54;8.60;67.70
19088;DHT22;9676;50.916;13.352;2024-03-25T00:13:41;8.60;68.00
19088;DHT22;9676;50.916;13.352;2024-03-25T00:16:27;8.50;67.60
19088;DHT22;9676;50.916;13.352;2024-03-25T00:19:14;8.50;67.80
19088;DHT22;9676;50.916;13.352;2024-03-25T00:22:00;8.50;67.70
19088;DHT22;9676;50.916;13.352;2024-03-25T00:24:47;8.50;67.80
19088;DHT22;9676;50.916;13.352;2024-03-25T00:27:35;8.50;67.80
19088;DHT22;9676;50.916;13.352;2024-03-25T00:30:21;8.40;67.90
19088;DHT22;9676;50.916;13.352;2024-03-25T00:33:07;8.30;67.50
19088;DHT22;9676;50.916;13.352;2024-03-25T00:35:55;8.30;67.80
19088;DHT22;9676;50.916;13.352;2024-03-25T00:38:41;8.30;68.20
19088;DHT22;9676;50.916;13.352;2024-03-25T00:41:28;8.20;68.10
19088;DHT22;9676;50.916;13.352;2024-03-25T00:44:15;8.20;68.20
19088;DHT22;9676;50.916;13.352;2024-03-25T00:47:01;8.10;68.60
19088;DHT22;9676;50.916;13.352;2024-03-25T00:49:47;8.10;68.50
19088;DHT22;9676;50.916;13.352;2024-03-25T00:52:34;8.10;68.80
19088;DHT22;9676;50.916;13.352;2024-03-25T00:55:19;8.10;69.30
19088;DHT22;9676;50.916;13.352;2024-03-25T00:58:07;8.10;69.90
19088;DHT22;9676;50.916;13.352;2024-03-25T01:00:54;8.10;69.90
19088;DHT22;9676;50.916;13.352;2024-03-25T01:03:41;8.10;70.60
19088;DHT22;9676;50.916;13.352;2024-03-25T01:06:27;8.10;70.00
19088;DHT22;9676;50.916;13.352;2024-03-25T01:09:14;8.00;69.70
19088;DHT22;9676;50.916;13.352;2024-03-25T01:12:01;8.00;69.80
19088;DHT22;9676;50.916;13.352;2024-03-25T01:14:47;7.90;70.00
19088;DHT22;9676;50.916;13.352;2024-03-25T01:17:35;7.90;69.30
19088;DHT22;9676;50.916;13.352;2024-03-25T01:20:21;7.90;69.80
19088;DHT22;9676;50.916;13.352;2024-03-25T01:23:07;7.80;69.20
19088;DHT22;9676;50.916;13.352;2024-03-25T01:25:54;7.80;69.30
19088;DHT22;9676;50.916;13.352;2024-03-25T01:28:40;7.80;69.30
19088;DHT22;9676;50.916;13.352;2024-03-25T01:31:26;7.70;69.30
19088;DHT22;9676;50.916;13.352;2024-03-25T01:34:14;7.70;69.30
19088;DHT22;9676;50.916;13.352;2024-03-25T01:37:00;7.70;70.00
19088;DHT22;9676;50.916;13.352;2024-03-25T01:39:46;7.70;70.20
19088;DHT22;9676;50.916;13.352;2024-03-25T01:42:33;7.70;70.80
19088;DHT22;9676;50.916;13.352;2024-03-25T01:45:19;7.60;70.50
19088;DHT22;9676;50.916;13.352;2024-03-25T01:48:07;7.70;70.80
19088;DHT22;9676;50.916;13.352;2024-03-25T01:50:57;7.70;72.00
19088;DHT22;9676;50.916;13.352;2024-03-25T01:53:45;7.70;72.10
19088;DHT22;9676;50.916;13.352;2024-03-25T01:56:33;7.70;71.60
19088;DHT22;9676;50.916;13.352;2024-03-25T01:59:20;7.70;71.50
19088;DHT22;9676;50.916;13.352;2024-03-25T02:02:07;7.70;71.30
19088;DHT22;9676;50.916;13.352;2024-03-25T02:04:56;7.70;71.30
19088;DHT22;9676;50.916;13.352;2024-03-25T02:07:44;7.70;72.20
19088;DHT22;9676;50.916;13.352;2024-03-25T02:10:31;7.70;72.00
19088;DHT22;9676;50.916;13.352;2024-03-25T02:13:18;7.70;72.20
19088;DHT22;9676;50.916;13.352;2024-03-25T02:16:05;7.70;71.80
19088;DHT22;9676;50.916;13.352;2024-03-25T02:18:52;7.70;72.50
19088;DHT22;9676;50.916;13.352;2024-03-25T02:21:37;7.70;72.20
19088;DHT22;9676;50.916;13.352;2024-03-25T02:24:26;7.70;72.50
19088;DHT22;9676;50.916;13.352;2024-03-25T02:27:14;7.70;73.40
19088;DHT22;9676;50.916;13.352;2024-03-25T02:30:05;7.70;72.90
19088;DHT22;9676;50.916;13.352;2024-03-25T02:32:52;7.70;73.30
19088;DHT22;9676;50.916;13.352;2024-03-25T02:35:40;7.70;72.60
19088;DHT22;9676;50.916;13.352;2024-03-25T02:38:26;7.70;73.50
19088;DHT22;9676;50.916;13.352;2024-03-25T02:41:14;7.70;73.20
19088;DHT22;9676;50.916;13.352;2024-03-25T02:44:01;7.70;74.80
19088;DHT22;9676;50.916;13.352;2024-03-25T02:46:48;7.80;74.20
19088;DHT22;9676;50.916;13.352;2024-03-25T02:49:34;7.80;73.60
19088;DHT22;9676;50.916;13.352;2024-03-25T02:52:21;7.80;73.70
19088;DHT22;9676;50.916;13.352;2024-03-25T02:55:07;7.80;73.50
19088;DHT22;9676;50.916;13.352;2024-03-25T02:57:54;7.80;73.40
19088;DHT22;9676;50.916;13.352;2024-03-25T03:00:41;7.80;73.30
19088;DHT22;9676;50.916;13.352;2024-03-25T03:03:28;7.90;74.10
19088;DHT22;9676;50.916;13.352;2024-03-25T03:06:13;7.80;73.70
19088;DHT22;9676;50.916;13.352;2024-03-25T03:09:00;7.80;73.90
19088;DHT22;9676;50.916;13.352;2024-03-25T03:11:46;7.80;74.00
19088;DHT22;9676;50.916;13.352;2024-03-25T03:14:33;7.90;74.10
19088;DHT22;9676;50.916;13.352;2024-03-25T03:17:20;7.90;75.10
19088;DHT22;9676;50.916;13.352;2024-03-25T03:20:07;7.90;74.90
19088;DHT22;9676;50.916;13.352;2024-03-25T03:22:55;7.90;74.70
19088;DHT22;9676;50.916;13.352;2024-03-25T03:25:41;8.00;74.90
19088;DHT22;9676;50.916;13.352;2024-03-25T03:28:28;8.00;75.90
19088;DHT22;9676;50.916;13.352;2024-03-25T03:31:13;8.00;75.00
19088;DHT22;9676;50.916;13.352;2024-03-25T03:34:02;8.00;74.70
19088;DHT22;9676;50.916;13.352;2024-03-25T03:36:47;8.00;75.70
19088;DHT22;9676;50.916;13.352;2024-03-25T03:39:34;8.00;75.00
19088;DHT22;9676;50.916;13.352;2024-03-25T03:42:20;8.10;75.50
19088;DHT22;9676;50.916;13.352;2024-03-25T03:45:07;8.10;74.80
19088;DHT22;9676;50.916;13.352;2024-03-25T03:47:53;8.10;74.80
19088;DHT22;9676;50.916;13.352;2024-03-25T03:50:41;8.10;74.70
19088;DHT22;9676;50.916;13.352;2024-03-25T03:53:27;8.10;75.00
19088;DHT22;9676;50.916;13.352;2024-03-25T03:56:13;8.10;74.50
19088;DHT22;9676;50.916;13.352;2024-03-25T03:59:01;8.20;74.80
19088;DHT22;9676;50.916;13.352;2024-03-25T04:01:47;8.20;74.70
19088;DHT22;9676;50.916;13.352;2024-03-25T04:04:34;8.20;74.70
19088;DHT22;9676;50.916;13.352;2024-03-25T04:07:21;8.20;74.60
19088;DHT22;9676;50.916;13.352;2024-03-25T04:10:11;8.20;75.10
19088;DHT22;9676;50.916;13.352;2024-03-25T04:12:57;8.20;74.70
19088;DHT22;9676;50.916;13.352;2024-03-25T04:15:43;8.20;74.80
19088;DHT22;9676;50.916;13.352;2024-03-25T04:18:30;8.30;74.60
19088;DHT22;9676;50.916;13.352;2024-03-25T04:21:17;8.20;74.70
19088;DHT22;9676;50.916;13.352;2024-03-25T04:24:04;8.20;75.10
19088;DHT22;9676;50.916;13.352;2024-03-25T04:26:52;8.20;75.40
19088;DHT22;9676;50.916;13.352;2024-03-25T04:29:38;8.20;75.00
19088;DHT22;9676;50.916;13.352;2024-03-25T04:32:24;8.20;75.10
19088;DHT22;9676;50.916;13.352;2024-03-25T04:35:10;8.20;75.20
19088;DHT22;9676;50.916;13.352;2024-03-25T04:37:57;8.30;75.20
19088;DHT22;9676;50.916;13.352;2024-03-25T04:40:44;8.30;75.80
19088;DHT22;9676;50.916;13.352;2024-03-25T04:43:30;8.30;76.10
19088;DHT22;9676;50.916;13.352;2024-03-25T04:46:15;8.30;75.40
19088;DHT22;9676;50.916;13.352;2024-03-25T04:49:01;8.30;75.40
19088;DHT22;9676;50.916;13.352;2024-03-25T04:51:47;8.30;75.30
19088;DHT22;9676;50.916;13.352;2024-03-25T04:54:33;8.30;75.30
19088;DHT22;9676;50.916;13.352;2024-03-25T04:57:20;8.40;75.50
19088;DHT22;9676;50.916;13.352;2024-03-25T05:00:07;8.40;75.90
19088;DHT22;9676;50.916;13.352;2024-03-25T05:02:55;8.40;75.60
19088;DHT22;9676;50.916;13.352;2024-03-25T05:05:41;8.40;75.40
19088;DHT22;9676;50.916;13.352;2024-03-25T05:08:27;8.40;75.40
19088;DHT22;9676;50.916;13.352;2024-03-25T05:11:12;8.40;75.50
19088;DHT22;9676;50.916;13.352;2024-03-25T05:14:00;8.40;75.10
19088;DHT22;9676;50.916;13.352;2024-03-25T05:16:45;8.50;75.40
19088;DHT22;9676;50.916;13.352;2024-03-25T05:19:31;8.40;75.20
19088;DHT22;9676;50.916;13.352;2024-03-25T05:22:17;8.40;75.20
19088;DHT22;9676;50.916;13.352;2024-03-25T05:25:03;8.50;75.00
19088;DHT22;9676;50.916;13.352;2024-03-25T05:27:49;8.40;75.00
19088;DHT22;9676;50.916;13.352;2024-03-25T05:30:36;8.40;75.10
19088;DHT22;9676;50.916;13.352;2024-03-25T05:33:21;8.40;75.40
19088;DHT22;9676;50.916;13.352;2024-03-25T05:36:07;8.50;75.20
19088;DHT22;9676;50.916;13.352;2024-03-25T05:38:53;8.50;75.40
19088;DHT22;9676;50.916;13.352;2024-03-25T05:41:39;8.50;75.20
19088;DHT22;9676;50.916;13.352;2024-03-25T05:44:25;8.50;75.30
19088;DHT22;9676;50.916;13.352;2024-03-25T05:47:14;8.50;75.70
19088;DHT22;9676;50.916;13.352;2024-03-25T05:50:00;8.50;76.20
19088;DHT22;9676;50.916;13.352;2024-03-25T05:52:45;8.60;75.50
19088;DHT22;9676;50.916;13.352;2024-03-25T05:55:31;8.60;75.40
19088;DHT22;9676;50.916;13.352;2024-03-25T05:58:17;8.60;75.30
19088;DHT22;9676;50.916;13.352;2024-03-25T06:01:03;8.60;75.60
19088;DHT22;9676;50.916;13.352;2024-03-25T06:03:50;8.50;75.40
19088;DHT22;9676;50.916;13.352;2024-03-25T06:06:36;8.50;75.60
19088;DHT22;9676;50.916;13.352;2024-03-25T06:09:22;8.50;75.40
19088;DHT22;9676;50.916;13.352;2024-03-25T06:12:07;8.50;75.60
19088;DHT22;9676;50.916;13.352;2024-03-25T06:14:53;8.50;76.00
19088;DHT22;9676;50.916;13.352;2024-03-25T06:17:39;8.50;76.00
19088;DHT22;9676;50.916;13.352;2024-03-25T06:20:26;8.50;76.80
19088;DHT22;9676;50.916;13.352;2024-03-25T06:23:21;8.50;77.50
19088;DHT22;9676;50.916;13.352;2024-03-25T06:26:08;8.60;79.40
19088;DHT22;9676;50.916;13.352;2024-03-25T06:28:54;8.70;78.70
19088;DHT22;9676;50.916;13.352;2024-03-25T06:31:40;8.70;78.70
19088;DHT22;9676;50.916;13.352;2024-03-25T06:34:44;8.80;78.60
19088;DHT22;9676;50.916;13.352;2024-03-25T06:37:31;8.90;78.20
19088;DHT22;9676;50.916;13.352;2024-03-25T06:40:16;9.00;78.40
19088;DHT22;9676;50.916;13.352;2024-03-25T06:43:03;9.00;78.40
19088;DHT22;9676;50.916;13.352;2024-03-25T06:45:49;9.10;79.40
19088;DHT22;9676;50.916;13.352;2024-03-25T06:48:35;9.20;81.10
19088;DHT22;9676;50.916;13.352;2024-03-25T06:51:20;9.40;82.00
19088;DHT22;9676;50.916;13.352;2024-03-25T06:54:08;9.50;82.30
19088;DHT22;9676;50.916;13.352;2024-03-25T06:56:53;9.70;82.40
19088;DHT22;9676;50.916;13.352;2024-03-25T06:59:39;9.80;82.40
19088;DHT22;9676;50.916;13.352;2024-03-25T07:02:25;10.00;81.60
19088;DHT22;9676;50.916;13.352;2024-03-25T07:05:11;10.20;82.70
19088;DHT22;9676;50.916;13.352;2024-03-25T07:07:56;10.40;83.30
19088;DHT22;9676;50.916;13.352;2024-03-25T07:10:44;10.50;82.20
19088;DHT22;9676;50.916;13.352;2024-03-25T07:13:30;10.70;80.10
19088;DHT22;9676;50.916;13.352;2024-03-25T07:16:15;10.80;78.60
19088;DHT22;9676;50.916;13.352;2024-03-25T07:19:03;10.90;77.20
19088;DHT22;9676;50.916;13.352;2024-03-25T07:21:49;10.90;76.00
19088;DHT22;9676;50.916;13.352;2024-03-25T07:24:34;10.90;75.40
19088;DHT22;9676;50.916;13.352;2024-03-25T07:27:22;10.90;74.70
19088;DHT22;9676;50.916;13.352;2024-03-25T07:30:07;10.90;74.00
19088;DHT22;9676;50.916;13.352;2024-03-25T07:32:53;10.80;73.80
19088;DHT22;9676;50.916;13.352;2024-03-25T07:35:39;10.80;73.80
19088;DHT22;9676;50.916;13.352;2024-03-25T07:38:25;10.80;73.70
19088;DHT22;9676;50.916;13.352;2024-03-25T07:41:11;10.70;73.70
19088;DHT22;9676;50.916;13.352;2024-03-25T07:43:58;10.70;73.90
19088;DHT22;9676;50.916;13.352;2024-03-25T07:46:44;10.70;73.60
19088;DHT22;9676;50.916;13.352;2024-03-25T07:49:30;10.70;73.40
19088;DHT22;9676;50.916;13.352;2024-03-25T07:52:16;10.70;73.70
19088;DHT22;9676;50.916;13.352;2024-03-25T07:55:02;10.70;73.80
19088;DHT22;9676;50.916;13.352;2024-03-25T07:57:48;10.60;73.80
19088;DHT22;9676;50.916;13.352;2024-03-25T08:00:35;10.70;74.00
19088;DHT22;9676;50.916;13.352;2024-03-25T08:03:21;10.70;74.10
19088;DHT22;9676;50.916;13.352;2024-03-25T08:06:07;10.70;74.40
19088;DHT22;9676;50.916;13.352;2024-03-25T08:08:53;10.70;74.60
19088;DHT22;9676;50.916;13.352;2024-03-25T08:11:38;10.70;74.70
19088;DHT22;9676;50.916;13.352;2024-03-25T08:14:24;10.70;74.60
19088;DHT22;9676;50.916;13.352;2024-03-25T08:17:11;10.80;74.30
19088;DHT22;9676;50.916;13.352;2024-03-25T08:19:57;10.80;73.60
19088;DHT22;9676;50.916;13.352;2024-03-25T08:22:43;10.80;72.90
19088;DHT22;9676;50.916;13.352;2024-03-25T08:25:28;10.80;72.40
19088;DHT22;9676;50.916;13.352;2024-03-25T08:28:14;10.80;72.10
19088;DHT22;9676;50.916;13.352;2024-03-25T08:31:00;10.70;72.80
19088;DHT22;9676;50.916;13.352;2024-03-25T08:33:47;10.70;73.50
19088;DHT22;9676;50.916;13.352;2024-03-25T08:36:33;10.80;74.60
19088;DHT22;9676;50.916;13.352;2024-03-25T08:39:18;10.80;76.00
19088;DHT22;9676;50.916;13.352;2024-03-25T08:42:04;10.90;77.10
19088;DHT22;9676;50.916;13.352;2024-03-25T08:44:50;11.00;77.50
19088;DHT22;9676;50.916;13.352;2024-03-25T08:47:36;11.20;77.10
19088;DHT22;9676;50.916;13.352;2024-03-25T08:50:23;11.30;76.10
19088;DHT22;9676;50.916;13.352;2024-03-25T08:53:09;11.40;74.50
19088;DHT22;9676;50.916;13.352;2024-03-25T08:55:55;11.50;73.60
19088;DHT22;9676;50.916;13.352;2024-03-25T08:58:41;11.50;72.70
19088;DHT22;9676;50.916;13.352;2024-03-25T09:01:27;11.50;72.20
19088;DHT22;9676;50.916;13.352;2024-03-25T09:04:13;11.50;71.70
19088;DHT22;9676;50.916;13.352;2024-03-25T09:07:00;11.50;71.30
19088;DHT22;9676;50.916;13.352;2024-03-25T09:09:45;11.50;71.00
19088;DHT22;9676;50.916;13.352;2024-03-25T09:12:49;11.40;71.00
19088;DHT22;9676;50.916;13.352;2024-03-25T09:15:35;11.40;71.30
19088;DHT22;9676;50.916;13.352;2024-03-25T09:18:21;11.40;71.80
19088;DHT22;9676;50.916;13.352;2024-03-25T09:21:07;11.40;72.80
19088;DHT22;9676;50.916;13.352;2024-03-25T09:23:54;11.50;74.20
19088;DHT22;9676;50.916;13.352;2024-03-25T09:26:40;11.60;74.30
19088;DHT22;9676;50.916;13.352;2024-03-25T09:29:26;11.70;75.80
19088;DHT22;9676;50.916;13.352;2024-03-25T09:32:12;11.80;76.70
19088;DHT22;9676;50.916;13.352;2024-03-25T09:34:57;12.00;77.80
19088;DHT22;9676;50.916;13.352;2024-03-25T09:37:43;12.20;78.80
19088;DHT22;9676;50.916;13.352;2024-03-25T09:40:30;12.50;79.80
19088;DHT22;9676;50.916;13.352;2024-03-25T09:43:23;12.80;80.40
19088;DHT22;9676;50.916;13.352;2024-03-25T09:46:10;13.10;80.40
19088;DHT22;9676;50.916;13.352;2024-03-25T09:48:56;13.50;82.00
19088;DHT22;9676;50.916;13.352;2024-03-25T09:51:42;13.80;81.70
19088;DHT22;9676;50.916;13.352;2024-03-25T09:54:29;14.10;80.00
19088;DHT22;9676;50.916;13.352;2024-03-25T09:57:16;14.40;77.30
19088;DHT22;9676;50.916;13.352;2024-03-25T10:00:02;14.70;73.50
19088;DHT22;9676;50.916;13.352;2024-03-25T10:03:08;14.80;70.90
19088;DHT22;9676;50.916;13.352;2024-03-25T10:05:54;14.80;69.50
19088;DHT22;9676;50.916;13.352;2024-03-25T10:08:40;14.80;68.10
19088;DHT22;9676;50.916;13.352;2024-03-25T10:11:26;14.70;67.00
19088;DHT22;9676;50.916;13.352;2024-03-25T10:14:14;14.60;67.50
19088;DHT22;9676;50.916;13.352;2024-03-25T10:17:02;14.50;67.10
19088;DHT22;9676;50.916;13.352;2024-03-25T10:19:47;14.50;67.70
19088;DHT22;9676;50.916;13.352;2024-03-25T10:22:41;14.50;69.10
19088;DHT22;9676;50.916;13.352;2024-03-25T10:25:28;14.50;68.20
19088;DHT22;9676;50.916;13.352;2024-03-25T10:28:15;14.60;69.10
19088;DHT22;9676;50.916;13.352;2024-03-25T10:31:04;14.70;69.10
19088;DHT22;9676;50.916;13.352;2024-03-25T10:33:50;14.70;67.90
19088;DHT22;9676;50.916;13.352;2024-03-25T10:36:36;14.80;69.40
19088;DHT22;9676;50.916;13.352;2024-03-25T10:39:26;14.90;70.00
19088;DHT22;9676;50.916;13.352;2024-03-25T10:42:14;15.00;70.10
19088;DHT22;9676;50.916;13.352;2024-03-25T10:45:02;15.20;70.40
19088;DHT22;9676;50.916;13.352;2024-03-25T10:47:49;15.40;70.80
19088;DHT22;9676;50.916;13.352;2024-03-25T10:50:35;15.60;70.50
19088;DHT22;9676;50.916;13.352;2024-03-25T10:53:22;15.70;70.00
19088;DHT22;9676;50.916;13.352;2024-03-25T10:56:08;15.90;69.10
19088;DHT22;9676;50.916;13.352;2024-03-25T10:58:56;16.00;67.90
19088;DHT22;9676;50.916;13.352;2024-03-25T11:01:43;16.10;66.50
19088;DHT22;9676;50.916;13.352;2024-03-25T11:04:30;16.10;65.00
19088;DHT22;9676;50.916;13.352;2024-03-25T11:07:16;16.10;63.30
19088;DHT22;9676;50.916;13.352;2024-03-25T11:10:04;16.00;62.60
19088;DHT22;9676;50.916;13.352;2024-03-25T11:12:51;15.80;61.60
19088;DHT22;9676;50.916;13.352;2024-03-25T11:15:37;15.60;61.60
19088;DHT22;9676;50.916;13.352;2024-03-25T11:18:24;15.50;61.50
19088;DHT22;9676;50.916;13.352;2024-03-25T11:21:12;15.30;61.70
19088;DHT22;9676;50.916;13.352;2024-03-25T11:24:06;15.20;61.50
19088;DHT22;9676;50.916;13.352;2024-03-25T11:26:53;15.10;61.00
19088;DHT22;9676;50.916;13.352;2024-03-25T11:29:39;15.00;61.30
19088;DHT22;9676;50.916;13.352;2024-03-25T11:32:26;14.90;61.20
19088;DHT22;9676;50.916;13.352;2024-03-25T11:35:12;14.80;61.00
19088;DHT22;9676;50.916;13.352;2024-03-25T11:38:00;14.70;61.20
19088;DHT22;9676;50.916;13.352;2024-03-25T11:40:46;14.70;60.90
19088;DHT22;9676;50.916;13.352;2024-03-25T11:43:32;14.70;60.70
19088;DHT22;9676;50.916;13.352;2024-03-25T11:46:19;14.60;60.30
19088;DHT22;9676;50.916;13.352;2024-03-25T11:49:07;14.50;60.10
19088;DHT22;9676;50.916;13.352;2024-03-25T11:51:54;14.40;60.00
19088;DHT22;9676;50.916;13.352;2024-03-25T11:54:41;14.30;59.80
19088;DHT22;9676;50.916;13.352;2024-03-25T11:57:28;14.20;59.50
19088;DHT22;9676;50.916;13.352;2024-03-25T12:00:14;14.10;59.40
19088;DHT22;9676;50.916;13.352;2024-03-25T12:03:00;14.00;59.40
19088;DHT22;9676;50.916;13.352;2024-03-25T12:05:46;13.90;59.30
19088;DHT22;9676;50.916;13.352;2024-03-25T12:08:33;13.80;59.20
19088;DHT22;9676;50.916;13.352;2024-03-25T12:11:20;13.70;59.20
19088;DHT22;9676;50.916;13.352;2024-03-25T12:14:06;13.60;59.30
19088;DHT22;9676;50.916;13.352;2024-03-25T12:16:53;13.50;59.40
19088;DHT22;9676;50.916;13.352;2024-03-25T12:19:39;13.50;59.50
19088;DHT22;9676;50.916;13.352;2024-03-25T12:22:26;13.40;59.50
19088;DHT22;9676;50.916;13.352;2024-03-25T12:25:12;13.40;59.70
19088;DHT22;9676;50.916;13.352;2024-03-25T12:27:59;13.40;60.00
19088;DHT22;9676;50.916;13.352;2024-03-25T12:30:52;13.40;60.40
19088;DHT22;9676;50.916;13.352;2024-03-25T12:33:40;13.40;60.80
19088;DHT22;9676;50.916;13.352;2024-03-25T12:36:26;13.50;61.70
19088;DHT22;9676;50.916;13.352;2024-03-25T12:39:15;13.60;62.30
19088;DHT22;9676;50.916;13.352;2024-03-25T12:42:04;13.70;61.80
19088;DHT22;9676;50.916;13.352;2024-03-25T12:44:51;13.80;61.80
19088;DHT22;9676;50.916;13.352;2024-03-25T12:47:38;13.90;61.70
19088;DHT22;9676;50.916;13.352;2024-03-25T12:50:24;14.00;61.60
19088;DHT22;9676;50.916;13.352;2024-03-25T12:53:17;14.10;61.40
19088;DHT22;9676;50.916;13.352;2024-03-25T12:56:03;14.20;61.00
19088;DHT22;9676;50.916;13.352;2024-03-25T12:58:49;14.30;61.30
19088;DHT22;9676;50.916;13.352;2024-03-25T13:01:36;14.30;60.80
19088;DHT22;9676;50.916;13.352;2024-03-25T13:04:22;14.30;60.20
19088;DHT22;9676;50.916;13.352;2024-03-25T13:07:08;14.30;60.10
19088;DHT22;9676;50.916;13.352;2024-03-25T13:09:53;14.20;60.10
19088;DHT22;9676;50.916;13.352;2024-03-25T13:12:39;14.20;60.30
19088;DHT22;9676;50.916;13.352;2024-03-25T13:15:25;14.20;60.40
19088;DHT22;9676;50.916;13.352;2024-03-25T13:18:12;14.10;60.60
19088;DHT22;9676;50.916;13.352;2024-03-25T13:20:58;14.20;61.00
19088;DHT22;9676;50.916;13.352;2024-03-25T13:23:44;14.20;61.50
19088;DHT22;9676;50.916;13.352;2024-03-25T13:26:30;14.30;62.10
19088;DHT22;9676;50.916;13.352;2024-03-25T13:29:16;14.40;62.70
19088;DHT22;9676;50.916;13.352;2024-03-25T13:32:02;14.50;63.10
19088;DHT22;9676;50.916;13.352;2024-03-25T13:34:49;14.70;63.50
19088;DHT22;9676;50.916;13.352;2024-03-25T13:37:35;14.90;63.60
19088;DHT22;9676;50.916;13.352;2024-03-25T13:40:21;15.10;63.90
19088;DHT22;9676;50.916;13.352;2024-03-25T13:43:07;15.30;64.00
19088;DHT22;9676;50.916;13.352;2024-03-25T13:45:53;15.40;63.80
19088;DHT22;9676;50.916;13.352;2024-03-25T13:48:38;15.60;63.70
19088;DHT22;9676;50.916;13.352;2024-03-25T13:51:25;15.80;63.20
19088;DHT22;9676;50.916;13.352;2024-03-25T13:54:11;15.80;62.30
19088;DHT22;9676;50.916;13.352;2024-03-25T13:56:57;16.00;61.90
19088;DHT22;9676;50.916;13.352;2024-03-25T13:59:43;15.90;61.20
19088;DHT22;9676;50.916;13.352;2024-03-25T14:02:28;16.00;60.60
19088;DHT22;9676;50.916;13.352;2024-03-25T14:05:14;15.90;59.90
19088;DHT22;9676;50.916;13.352;2024-03-25T14:08:02;15.90;59.20
19088;DHT22;9676;50.916;13.352;2024-03-25T14:10:57;15.80;59.00
19088;DHT22;9676;50.916;13.352;2024-03-25T14:13:44;15.70;59.00
19088;DHT22;9676;50.916;13.352;2024-03-25T14:16:30;15.60;59.00
19088;DHT22;9676;50.916;13.352;2024-03-25T14:19:15;15.50;58.80
19088;DHT22;9676;50.916;13.352;2024-03-25T14:22:01;15.40;58.90
19088;DHT22;9676;50.916;13.352;2024-03-25T14:24:48;15.40;59.10
19088;DHT22;9676;50.916;13.352;2024-03-25T14:27:34;15.40;59.00
19088;DHT22;9676;50.916;13.352;2024-03-25T14:30:20;15.30;58.60
19088;DHT22;9676;50.916;13.352;2024-03-25T14:33:06;15.30;58.30
19088;DHT22;9676;50.916;13.352;2024-03-25T14:35:52;15.20;58.00
19088;DHT22;9676;50.916;13.352;2024-03-25T14:38:41;15.10;57.80
19088;DHT22;9676;50.916;13.352;2024-03-25T14:41:38;15.00;57.90
19088;DHT22;9676;50.916;13.352;2024-03-25T14:44:24;14.90;57.30
19088;DHT22;9676;50.916;13.352;2024-03-25T14:47:10;14.90;58.00
19088;DHT22;9676;50.916;13.352;2024-03-25T14:49:56;14.90;58.00
19088;DHT22;9676;50.916;13.352;2024-03-25T14:52:42;14.90;57.90
19088;DHT22;9676;50.916;13.352;2024-03-25T14:55:29;14.90;57.60
19088;DHT22;9676;50.916;13.352;2024-03-25T14:58:16;14.80;57.30
19088;DHT22;9676;50.916;13.352;2024-03-25T15:01:01;14.90;57.20
19088;DHT22;9676;50.916;13.352;2024-03-25T15:03:47;14.80;57.10
19088;DHT22;9676;50.916;13.352;2024-03-25T15:06:33;14.80;56.90
19088;DHT22;9676;50.916;13.352;2024-03-25T15:09:19;14.70;57.20
19088;DHT22;9676;50.916;13.352;2024-03-25T15:12:05;14.70;56.30
19088;DHT22;9676;50.916;13.352;2024-03-25T15:14:53;14.60;56.20
19088;DHT22;9676;50.916;13.352;2024-03-25T15:17:39;14.60;56.20
19088;DHT22;9676;50.916;13.352;2024-03-25T15:20:24;14.50;56.20
19088;DHT22;9676;50.916;13.352;2024-03-25T15:23:10;14.50;56.30
19088;DHT22;9676;50.916;13.352;2024-03-25T15:25:56;14.40;56.00
19088;DHT22;9676;50.916;13.352;2024-03-25T15:28:42;14.40;56.10
19088;DHT22;9676;50.916;13.352;2024-03-25T15:31:29;14.30;56.10
19088;DHT22;9676;50.916;13.352;2024-03-25T15:34:14;14.30;56.10
19088;DHT22;9676;50.916;13.352;2024-03-25T15:37:00;14.30;56.20
19088;DHT22;9676;50.916;13.352;2024-03-25T15:39:46;14.30;56.20
19088;DHT22;9676;50.916;13.352;2024-03-25T15:42:33;14.30;56.00
19088;DHT22;9676;50.916;13.352;2024-03-25T15:45:19;14.30;55.60
19088;DHT22;9676;50.916;13.352;2024-03-25T15:48:07;14.30;55.70
19088;DHT22;9676;50.916;13.352;2024-03-25T15:50:53;14.20;55.40
19088;DHT22;9676;50.916;13.352;2024-03-25T15:53:39;14.20;55.30
19088;DHT22;9676;50.916;13.352;2024-03-25T15:56:25;14.20;55.20
19088;DHT22;9676;50.916;13.352;2024-03-25T15:59:11;14.10;54.90
19088;DHT22;9676;50.916;13.352;2024-03-25T16:01:57;14.10;54.80
19088;DHT22;9676;50.916;13.352;2024-03-25T16:04:44;14.10;54.40
19088;DHT22;9676;50.916;13.352;2024-03-25T16:07:30;14.00;54.10
19088;DHT22;9676;50.916;13.352;2024-03-25T16:10:16;13.90;54.00
19088;DHT22;9676;50.916;13.352;2024-03-25T16:13:07;13.80;53.80
19088;DHT22;9676;50.916;13.352;2024-03-25T16:16:15;13.70;53.60
19088;DHT22;9676;50.916;13.352;2024-03-25T16:19:01;13.50;53.00
19088;DHT22;9676;50.916;13.352;2024-03-25T16:21:49;13.40;53.20
19088;DHT22;9676;50.916;13.352;2024-03-25T16:24:35;13.30;52.90
19088;DHT22;9676;50.916;13.352;2024-03-25T16:27:21;13.20;52.90
19088;DHT22;9676;50.916;13.352;2024-03-25T16:30:07;13.10;52.90
19088;DHT22;9676;50.916;13.352;2024-03-25T16:32:54;13.00;52.70
19088;DHT22;9676;50.916;13.352;2024-03-25T16:35:40;12.90;52.70
19088;DHT22;9676;50.916;13.352;2024-03-25T16:38:27;12.70;52.60
19088;DHT22;9676;50.916;13.352;2024-03-25T16:41:12;12.60;52.40
19088;DHT22;9676;50.916;13.352;2024-03-25T16:43:58;12.50;52.40
19088;DHT22;9676;50.916;13.352;2024-03-25T16:46:44;12.40;52.30
19088;DHT22;9676;50.916;13.352;2024-03-25T16:49:29;12.30;52.10
19088;DHT22;9676;50.916;13.352;2024-03-25T16:52:15;12.20;52.10
19088;DHT22;9676;50.916;13.352;2024-03-25T16:55:03;12.10;52.10
19088;DHT22;9676;50.916;13.352;2024-03-25T16:57:51;12.00;51.90
19088;DHT22;9676;50.916;13.352;2024-03-25T17:00:36;11.90;51.90
19088;DHT22;9676;50.916;13.352;2024-03-25T17:03:22;11.80;51.80
19088;DHT22;9676;50.916;13.352;2024-03-25T17:06:08;11.70;51.70
19088;DHT22;9676;50.916;13.352;2024-03-25T17:08:54;11.60;51.60
19088;DHT22;9676;50.916;13.352;2024-03-25T17:11:41;11.50;51.50
19088;DHT22;9676;50.916;13.352;2024-03-25T17:14:27;11.40;51.40
19088;DHT22;9676;50.916;13.352;2024-03-25T17:17:13;11.30;51.40
19088;DHT22;9676;50.916;13.352;2024-03-25T17:19:58;11.20;51.30
19088;DHT22;9676;50.916;13.352;2024-03-25T17:22:44;11.10;51.30
19088;DHT22;9676;50.916;13.352;2024-03-25T17:25:31;11.00;51.20
19088;DHT22;9676;50.916;13.352;2024-03-25T17:28:18;10.90;51.20
19088;DHT22;9676;50.916;13.352;2024-03-25T17:31:05;10.80;51.20
19088;DHT22;9676;50.916;13.352;2024-03-25T17:33:52;10.70;51.20
19088;DHT22;9676;50.916;13.352;2024-03-25T17:36:37;10.60;51.10
19088;DHT22;9676;50.916;13.352;2024-03-25T17:39:23;10.50;51.20
19088;DHT22;9676;50.916;13.352;2024-03-25T17:42:09;10.40;51.20